Time;durP1;ratioP1;P1;durP2;ratioP2;P2;SDS_P1;SDS_P2;PMS_P1;PMS_P2;Temp;Humidity;BMP_temperature;BMP_pressure;BME280_temperature;BME280_humidity;BME280_pressure;Samples;Min_cycle;Max_cycle;Signal;HPM_P1;HPM_P2
2023/10/15 00:01:12;;;;;;;9.90;2.40;;;9.00;80.00;;;;;;5008678;28;20488;-72
2023/10/15 00:03:38;;;;;;;5.30;1.70;;;9.00;80.30;;;;;;5014148;28;20222;-71
2023/10/15 00:06:04;;;;;;;16.50;2.40;;;9.00;80.20;;;;;;5013325;28;20326;-71
2023/10/15 00:08:29;;;;;;;4.70;2.00;;;9.00;80.30;;;;;;5014723;28;20728;-72
2023/10/15 00:10:55;;;;;;;4.23;2.17;;;9.00;80.20;;;;;;5010373;28;20178;-72
2023/10/15 00:13:20;;;;;;;8.23;1.77;;;9.00;79.70;;;;;;5016737;28;20194;-72
2023/10/15 00:15:46;;;;;;;6.00;2.67;;;8.90;79.70;;;;;;5015577;28;20288;-71
2023/10/15 00:18:13;;;;;;;6.23;2.03;;;9.00;80.50;;;;;;5016065;28;20204;-70
2023/10/15 00:20:40;;;;;;;4.10;1.87;;;9.10;79.90;;;;;;5017712;28;20193;-70
2023/10/15 00:23:06;;;;;;;2.83;1.90;;;9.10;79.30;;;;;;5019235;28;20472;-72
2023/10/15 00:25:47;;;;;;;6.03;2.03;;;9.20;79.30;;;;;;5007687;28;20500;-71
2023/10/15 00:28:13;;;;;;;6.00;2.00;;;9.10;78.90;;;;;;5016684;28;20451;-71
2023/10/15 00:30:39;;;;;;;6.63;2.13;;;9.10;79.20;;;;;;5017229;28;21548;-71
2023/10/15 00:33:11;;;;;;;4.43;2.63;;;9.20;78.90;;;;;;5016101;28;20543;-72
2023/10/15 00:35:37;;;;;;;7.20;2.00;;;9.20;78.90;;;;;;5012188;28;20473;-71
2023/10/15 00:38:10;;;;;;;5.10;1.77;;;9.20;78.90;;;;;;5016319;28;20491;-71
2023/10/15 00:40:37;;;;;;;8.73;1.87;;;9.30;78.10;;;;;;5018750;28;20437;-71
2023/10/15 00:43:04;;;;;;;5.33;2.27;;;9.30;77.70;;;;;;5015203;28;20460;-71
2023/10/15 00:45:39;;;;;;;10.80;1.87;;;9.20;78.00;;;;;;5014120;28;20997;-71
2023/10/15 00:50:38;;;;;;;8.00;2.30;;;9.20;78.90;;;;;;5016322;28;20440;-71
2023/10/15 00:53:21;;;;;;;2.70;1.83;;;9.40;78.60;;;;;;5016160;28;21331;-71
2023/10/15 00:55:53;;;;;;;4.57;1.83;;;9.40;77.30;;;;;;5015859;28;20460;-71
2023/10/15 00:58:35;;;;;;;4.10;1.70;;;9.40;77.60;;;;;;5021508;28;20413;-72
2023/10/15 01:03:56;;;;;;;5.20;1.90;;;9.30;77.30;;;;;;5022031;28;20797;-72
2023/10/15 01:06:30;;;;;;;6.37;1.70;;;9.30;77.10;;;;;;5009125;28;20476;-72
2023/10/15 01:08:58;;;;;;;6.43;2.13;;;9.40;77.10;;;;;;5012417;28;20800;-71
2023/10/15 01:11:28;;;;;;;8.47;2.20;;;9.40;77.00;;;;;;5020521;28;20475;-71
2023/10/15 01:13:54;;;;;;;2.90;1.53;;;9.50;77.10;;;;;;5017626;28;20452;-71
2023/10/15 01:16:21;;;;;;;1.83;1.10;;;9.60;77.10;;;;;;5016441;28;20452;-72
2023/10/15 01:19:05;;;;;;;6.30;2.03;;;9.60;77.00;;;;;;5017511;28;20421;-71
2023/10/15 01:21:32;;;;;;;3.97;1.93;;;9.60;76.80;;;;;;5013237;28;20955;-71
2023/10/15 01:24:06;;;;;;;2.87;1.80;;;9.70;75.70;;;;;;5011910;28;20436;-70
2023/10/15 01:26:38;;;;;;;7.20;2.27;;;9.70;76.10;;;;;;5009025;28;20587;-70
2023/10/15 01:29:07;;;;;;;4.50;1.60;;;9.70;76.10;;;;;;5011953;28;20423;-71
2023/10/15 01:31:49;;;;;;;4.23;1.97;;;9.70;75.90;;;;;;5012656;28;20428;-71
2023/10/15 01:34:21;;;;;;;7.43;2.03;;;9.60;76.10;;;;;;5012318;28;20449;-71
2023/10/15 01:36:50;;;;;;;3.60;1.93;;;9.70;76.20;;;;;;5005573;28;20453;-71
2023/10/15 01:39:21;;;;;;;5.30;1.70;;;9.70;76.10;;;;;;5005292;28;20896;-70
2023/10/15 01:41:53;;;;;;;4.33;1.70;;;9.80;75.90;;;;;;5011866;28;20471;-70
2023/10/15 01:44:19;;;;;;;8.43;1.70;;;9.80;76.10;;;;;;5011928;28;20428;-72
2023/10/15 01:46:48;;;;;;;3.50;1.60;;;10.00;75.70;;;;;;5007665;28;20475;-70
2023/10/15 01:49:33;;;;;;;2.73;1.50;;;10.00;75.20;;;;;;5011441;28;20426;-70
2023/10/15 01:52:12;;;;;;;5.17;1.70;;;10.00;75.10;;;;;;5011476;28;20417;-70
2023/10/15 01:54:45;;;;;;;3.93;2.00;;;10.00;75.70;;;;;;5011344;28;20917;-70
2023/10/15 01:57:15;;;;;;;5.73;2.00;;;9.90;75.80;;;;;;5009218;28;20468;-72
2023/10/15 01:59:45;;;;;;;4.90;2.10;;;10.00;76.10;;;;;;5014465;28;20451;-71
2023/10/15 02:02:13;;;;;;;5.67;1.93;;;10.00;76.50;;;;;;5007761;28;20468;-70
2023/10/15 02:04:46;;;;;;;4.77;1.73;;;10.00;76.80;;;;;;5012429;28;20425;-70
2023/10/15 02:07:22;;;;;;;9.70;1.83;;;10.00;76.20;;;;;;4997107;28;20515;-69
2023/10/15 02:09:47;;;;;;;3.53;1.80;;;9.90;76.50;;;;;;5011784;28;21277;-70
2023/10/15 02:12:14;;;;;;;2.40;1.80;;;9.80;77.10;;;;;;5012282;28;20437;-70
2023/10/15 02:14:44;;;;;;;7.63;2.50;;;9.70;77.80;;;;;;5008797;28;20194;-70
2023/10/15 02:17:13;;;;;;;5.57;1.93;;;9.70;78.00;;;;;;5008187;28;20441;-70
2023/10/15 02:19:43;;;;;;;3.20;2.03;;;9.70;78.00;;;;;;5010623;28;20444;-70
2023/10/15 02:22:13;;;;;;;8.87;2.00;;;9.60;78.10;;;;;;5011171;28;21040;-70
2023/10/15 02:24:46;;;;;;;3.27;1.77;;;9.70;78.30;;;;;;5012427;28;20947;-70
2023/10/15 02:27:24;;;;;;;5.37;1.93;;;9.70;78.00;;;;;;5006491;28;20448;-70
2023/10/15 02:29:50;;;;;;;4.50;1.50;;;9.70;78.10;;;;;;5011308;28;20417;-71
2023/10/15 02:34:45;;;;;;;4.60;1.70;;;9.70;78.40;;;;;;5008343;28;20519;-71
2023/10/15 02:37:16;;;;;;;6.17;1.83;;;9.80;77.70;;;;;;5010680;28;21199;-70
2023/10/15 02:39:49;;;;;;;5.43;2.23;;;9.90;77.60;;;;;;5005535;28;20721;-70
2023/10/15 02:42:16;;;;;;;4.93;2.20;;;9.90;77.60;;;;;;5009920;28;20535;-70
2023/10/15 02:44:42;;;;;;;4.20;2.00;;;9.90;77.60;;;;;;5011075;28;20928;-71
2023/10/15 02:47:10;;;;;;;2.93;1.83;;;9.90;77.30;;;;;;5009094;28;20515;-70
2023/10/15 02:49:50;;;;;;;4.10;1.60;;;9.90;77.40;;;;;;5010576;28;20197;-71
2023/10/15 02:52:19;;;;;;;3.13;1.70;;;9.80;77.80;;;;;;5006689;28;20468;-71
2023/10/15 02:54:48;;;;;;;7.80;2.80;;;9.70;78.30;;;;;;5008795;28;20417;-70
2023/10/15 02:57:17;;;;;;;3.50;1.73;;;9.60;78.60;;;;;;5006523;28;20496;-70
2023/10/15 02:59:52;;;;;;;2.73;1.70;;;9.70;78.90;;;;;;5004705;28;20782;-72
2023/10/15 03:02:19;;;;;;;5.40;1.87;;;9.60;78.90;;;;;;5010433;28;20981;-71
2023/10/15 03:04:49;;;;;;;10.60;2.10;;;9.50;79.20;;;;;;5012677;28;20420;-72
2023/10/15 03:07:30;;;;;;;7.77;1.97;;;9.50;79.50;;;;;;5012735;28;20805;-71
2023/10/15 03:09:56;;;;;;;4.50;1.97;;;9.60;79.60;;;;;;5011929;28;20435;-71
2023/10/15 03:12:33;;;;;;;4.30;2.00;;;9.60;79.30;;;;;;5010688;28;20425;-72
2023/10/15 03:15:00;;;;;;;5.33;2.00;;;9.70;79.50;;;;;;5008498;28;20428;-72
2023/10/15 03:17:29;;;;;;;5.93;2.13;;;9.70;79.20;;;;;;5007275;28;20432;-70
2023/10/15 03:19:56;;;;;;;4.13;2.03;;;9.80;79.00;;;;;;5010632;28;20551;-70
2023/10/15 03:22:29;;;;;;;3.00;1.80;;;9.70;79.30;;;;;;5009939;28;20481;-70
2023/10/15 03:24:59;;;;;;;5.60;2.03;;;9.60;79.70;;;;;;5009992;28;20967;-70
2023/10/15 03:27:27;;;;;;;4.23;1.90;;;9.60;80.60;;;;;;5006756;28;20437;-71
2023/10/15 03:29:56;;;;;;;6.03;2.13;;;9.60;80.60;;;;;;5010217;28;20413;-70
2023/10/15 03:32:30;;;;;;;4.53;1.70;;;9.60;80.60;;;;;;5016796;28;20960;-70
2023/10/15 03:35:08;;;;;;;7.40;2.10;;;9.60;81.10;;;;;;5009750;28;20495;-72
2023/10/15 03:37:38;;;;;;;4.07;1.90;;;9.60;81.10;;;;;;5008857;28;20436;-71
2023/10/15 03:40:12;;;;;;;3.73;2.20;;;9.60;81.50;;;;;;5010101;28;20516;-71
2023/10/15 03:42:40;;;;;;;4.33;1.93;;;9.50;81.20;;;;;;5010263;28;20472;-71
2023/10/15 03:45:15;;;;;;;7.33;2.30;;;9.60;81.50;;;;;;5007805;28;20429;-71
2023/10/15 03:47:41;;;;;;;4.13;2.00;;;9.60;81.40;;;;;;5009791;28;20463;-71
2023/10/15 03:50:10;;;;;;;3.07;1.63;;;9.70;81.70;;;;;;5007000;28;20453;-71
2023/10/15 03:52:37;;;;;;;5.27;1.70;;;9.70;81.70;;;;;;5016009;28;20186;-70
2023/10/15 03:55:04;;;;;;;5.13;1.93;;;9.80;81.40;;;;;;5008237;28;20455;-70
2023/10/15 03:57:34;;;;;;;3.70;2.07;;;9.80;80.50;;;;;;5008537;28;20791;-71
2023/10/15 04:00:00;;;;;;;5.87;2.03;;;9.90;80.20;;;;;;5010297;28;20431;-71
2023/10/15 04:02:27;;;;;;;10.30;2.20;;;9.90;80.00;;;;;;5010518;28;20575;-71
2023/10/15 04:05:11;;;;;;;4.10;1.70;;;9.90;79.90;;;;;;5012055;28;20956;-72
2023/10/15 04:07:48;;;;;;;6.27;2.13;;;9.90;80.00;;;;;;5009499;28;20795;-71
2023/10/15 04:10:14;;;;;;;3.40;1.70;;;9.90;80.20;;;;;;5009037;28;20419;-73
2023/10/15 04:12:43;;;;;;;5.67;2.13;;;10.00;79.90;;;;;;5012990;28;20503;-72
2023/10/15 04:15:16;;;;;;;7.90;1.70;;;9.90;79.60;;;;;;5001764;28;20417;-72
2023/10/15 04:17:48;;;;;;;4.80;1.93;;;9.90;79.90;;;;;;5012806;28;20436;-72
2023/10/15 04:20:35;;;;;;;10.73;1.90;;;10.00;79.70;;;;;;5010739;28;20860;-73
2023/10/15 04:23:01;;;;;;;6.93;2.10;;;10.00;79.50;;;;;;5016497;28;20559;-71
2023/10/15 04:25:32;;;;;;;11.90;2.27;;;9.90;79.70;;;;;;5014158;28;21072;-70
2023/10/15 04:28:08;;;;;;;4.23;1.80;;;9.80;80.20;;;;;;5013948;28;20651;-71
2023/10/15 04:30:38;;;;;;;7.37;1.90;;;9.80;80.50;;;;;;5021592;28;21265;-70
2023/10/15 04:33:09;;;;;;;7.63;1.97;;;9.80;80.60;;;;;;5008407;28;20433;-71
2023/10/15 04:35:37;;;;;;;8.40;2.07;;;9.70;80.60;;;;;;5006682;28;20464;-72
2023/10/15 04:38:07;;;;;;;12.43;2.43;;;9.70;80.90;;;;;;5009220;28;20914;-72
2023/10/15 04:41:00;;;;;;;4.80;2.17;;;9.80;81.40;;;;;;5007709;28;20417;-72
2023/10/15 04:43:26;;;;;;;9.50;2.00;;;9.80;81.10;;;;;;5009125;28;20615;-71
2023/10/15 04:45:54;;;;;;;6.97;2.10;;;9.80;81.50;;;;;;5007000;28;20500;-72
2023/10/15 04:48:26;;;;;;;8.93;2.00;;;9.60;81.80;;;;;;5010090;28;20417;-72
2023/10/15 04:50:52;;;;;;;5.17;1.60;;;9.60;82.40;;;;;;5009814;28;20429;-72
2023/10/15 04:55:54;;;;;;;3.53;1.90;;;9.50;83.30;;;;;;5007693;28;20468;-72
2023/10/15 04:58:20;;;;;;;2.50;1.63;;;9.40;83.70;;;;;;5013770;28;20990;-72
2023/10/15 05:00:50;;;;;;;4.83;1.53;;;9.40;83.80;;;;;;5011117;28;20507;-72
2023/10/15 05:03:16;;;;;;;6.50;2.57;;;9.50;83.40;;;;;;5011441;28;20472;-70
2023/10/15 05:05:43;;;;;;;6.17;2.23;;;9.40;83.40;;;;;;5009599;28;20480;-71
2023/10/15 05:08:11;;;;;;;6.97;2.13;;;9.40;83.80;;;;;;5009226;28;20467;-71
2023/10/15 05:10:38;;;;;;;4.13;2.53;;;9.40;84.10;;;;;;5012611;28;20412;-71
2023/10/15 05:13:04;;;;;;;5.27;2.17;;;9.30;84.30;;;;;;5020553;28;20438;-70
2023/10/15 05:15:30;;;;;;;7.50;2.37;;;9.20;84.70;;;;;;5016940;28;20542;-71
2023/10/15 05:17:56;;;;;;;3.97;2.27;;;9.10;84.60;;;;;;5013244;28;20457;-71
2023/10/15 05:20:21;;;;;;;7.10;3.00;;;9.10;84.90;;;;;;5012723;28;20436;-70
2023/10/15 05:22:48;;;;;;;4.50;2.20;;;9.00;85.20;;;;;;5012212;28;20213;-70
2023/10/15 05:25:20;;;;;;;8.40;2.20;;;9.10;85.20;;;;;;5008817;28;20956;-72
2023/10/15 05:27:49;;;;;;;7.63;2.47;;;9.10;85.20;;;;;;5008959;28;20424;-71
2023/10/15 05:30:15;;;;;;;4.97;2.20;;;9.20;85.30;;;;;;5012482;28;21123;-70
2023/10/15 05:32:44;;;;;;;8.33;2.13;;;9.30;85.00;;;;;;5012521;28;20503;-71
2023/10/15 05:35:11;;;;;;;3.80;1.90;;;9.30;84.70;;;;;;5010313;28;20443;-71
2023/10/15 05:37:39;;;;;;;5.37;2.27;;;9.30;84.70;;;;;;5010250;28;20436;-72
2023/10/15 05:40:06;;;;;;;6.90;2.60;;;9.30;84.60;;;;;;5012409;28;20789;-71
2023/10/15 05:42:32;;;;;;;6.33;2.30;;;9.40;84.60;;;;;;5012048;28;20476;-71
2023/10/15 05:44:58;;;;;;;3.93;2.20;;;9.40;84.60;;;;;;5012297;28;20413;-71
2023/10/15 05:47:23;;;;;;;5.17;2.03;;;9.50;84.40;;;;;;5010367;28;20432;-72
2023/10/15 05:49:50;;;;;;;6.23;2.80;;;9.40;84.30;;;;;;5012390;28;20225;-71
2023/10/15 05:52:15;;;;;;;4.90;2.97;;;9.40;84.60;;;;;;5012250;28;20190;-71
2023/10/15 05:54:41;;;;;;;9.37;2.57;;;9.40;85.00;;;;;;5012528;28;20424;-71
2023/10/15 05:57:07;;;;;;;6.40;2.30;;;9.30;84.70;;;;;;5006750;28;20625;-72
2023/10/15 05:59:36;;;;;;;8.97;2.47;;;9.40;84.90;;;;;;5008261;28;20503;-72
2023/10/15 06:02:04;;;;;;;6.73;2.50;;;9.40;84.90;;;;;;5010781;28;20233;-71
2023/10/15 06:04:30;;;;;;;6.93;2.73;;;9.40;85.20;;;;;;5020852;28;20437;-71
2023/10/15 06:06:57;;;;;;;4.93;2.83;;;9.50;85.30;;;;;;5009154;28;20570;-71
2023/10/15 06:09:23;;;;;;;5.67;2.00;;;9.60;85.00;;;;;;5014472;28;20848;-70
2023/10/15 06:11:49;;;;;;;5.80;2.37;;;9.60;84.60;;;;;;5009342;28;20426;-70
2023/10/15 06:14:15;;;;;;;9.70;2.83;;;9.70;84.40;;;;;;5010564;28;20221;-71
2023/10/15 06:16:41;;;;;;;4.63;2.23;;;9.70;83.60;;;;;;5007951;28;20491;-70
2023/10/15 06:19:09;;;;;;;5.47;2.43;;;9.50;83.70;;;;;;5012414;28;20189;-70
2023/10/15 06:21:35;;;;;;;6.07;2.20;;;9.50;84.00;;;;;;5012373;28;20461;-69
2023/10/15 06:24:00;;;;;;;9.40;2.53;;;9.50;84.30;;;;;;5011725;28;20815;-70
2023/10/15 06:26:26;;;;;;;5.30;2.30;;;9.40;84.30;;;;;;5006883;28;20470;-72
2023/10/15 06:28:52;;;;;;;4.60;2.50;;;9.40;84.40;;;;;;5008791;28;20820;-70
2023/10/15 06:31:17;;;;;;;7.57;3.33;;;9.50;84.70;;;;;;5007704;28;20416;-70
2023/10/15 06:33:44;;;;;;;7.30;3.00;;;9.50;84.40;;;;;;5009378;28;20193;-70
2023/10/15 06:36:09;;;;;;;8.80;2.60;;;9.50;84.30;;;;;;5007296;28;20575;-70
2023/10/15 06:38:35;;;;;;;4.70;3.27;;;9.50;84.30;;;;;;5008571;28;20443;-71
2023/10/15 06:41:01;;;;;;;10.47;3.30;;;9.60;84.10;;;;;;5008346;28;20744;-71
2023/10/15 06:43:28;;;;;;;7.37;3.27;;;9.60;83.70;;;;;;5009004;28;20571;-71
2023/10/15 06:45:53;;;;;;;12.30;3.80;;;9.70;83.40;;;;;;5007626;28;20281;-70
2023/10/15 06:48:22;;;;;;;4.63;2.73;;;9.70;83.10;;;;;;5013531;28;20495;-70
2023/10/15 06:50:48;;;;;;;5.07;2.90;;;9.70;83.00;;;;;;5004401;28;20924;-71
2023/10/15 06:53:13;;;;;;;6.30;3.10;;;9.80;82.80;;;;;;5011240;28;20431;-70
2023/10/15 06:55:39;;;;;;;8.27;3.97;;;9.90;82.80;;;;;;5007850;28;20496;-70
2023/10/15 06:58:04;;;;;;;9.90;3.23;;;10.00;82.80;;;;;;5005499;28;20173;-70
2023/10/15 07:00:36;;;;;;;6.93;3.23;;;10.10;82.50;;;;;;5008381;28;20613;-72
2023/10/15 07:03:02;;;;;;;7.00;3.50;;;10.10;82.20;;;;;;5008450;28;20694;-70
2023/10/15 07:05:28;;;;;;;16.93;4.60;;;10.20;82.20;;;;;;5003087;28;20455;-70
2023/10/15 07:07:57;;;;;;;11.13;4.07;;;10.20;81.70;;;;;;5008848;28;20274;-70
2023/10/15 07:10:23;;;;;;;7.50;2.80;;;10.20;80.60;;;;;;5004106;28;20429;-70
2023/10/15 07:12:51;;;;;;;6.90;2.77;;;10.30;80.30;;;;;;5003454;28;20520;-71
2023/10/15 07:15:20;;;;;;;7.70;3.10;;;10.30;80.30;;;;;;5007338;28;20241;-71
2023/10/15 07:17:46;;;;;;;4.93;3.23;;;10.30;80.20;;;;;;5012284;28;20420;-73
2023/10/15 07:20:18;;;;;;;4.50;3.00;;;10.10;80.60;;;;;;5015860;28;20514;-71
2023/10/15 07:22:49;;;;;;;9.03;3.07;;;10.00;81.70;;;;;;5011337;28;20464;-71
2023/10/15 07:25:18;;;;;;;9.27;3.30;;;10.00;81.80;;;;;;5010502;28;20556;-71
2023/10/15 07:27:48;;;;;;;10.13;3.33;;;10.00;82.10;;;;;;5008917;28;20469;-71
2023/10/15 07:30:15;;;;;;;9.20;3.37;;;9.90;81.90;;;;;;5010806;28;20425;-71
2023/10/15 07:32:42;;;;;;;5.23;3.30;;;9.90;82.10;;;;;;5011830;28;20449;-71
2023/10/15 07:35:11;;;;;;;7.80;3.53;;;9.90;82.20;;;;;;5009790;28;20453;-71
2023/10/15 07:37:39;;;;;;;10.33;3.67;;;9.80;81.80;;;;;;5010691;28;20435;-71
2023/10/15 07:40:17;;;;;;;12.17;4.33;;;9.90;82.20;;;;;;5009794;28;20818;-71
2023/10/15 07:42:44;;;;;;;6.30;3.57;;;9.80;81.90;;;;;;5009691;28;21036;-70
2023/10/15 07:45:10;;;;;;;6.37;3.30;;;9.90;81.90;;;;;;5007956;28;20527;-70
2023/10/15 07:47:37;;;;;;;10.10;4.00;;;9.90;81.80;;;;;;5010351;28;20554;-71
2023/10/15 07:50:04;;;;;;;11.60;4.17;;;9.90;81.20;;;;;;5006190;28;20447;-70
2023/10/15 07:52:30;;;;;;;11.37;4.77;;;9.90;81.50;;;;;;5010189;28;20505;-71
2023/10/15 07:54:55;;;;;;;7.57;3.57;;;9.90;81.90;;;;;;5009503;28;20988;-71
2023/10/15 07:57:21;;;;;;;5.10;3.10;;;10.10;82.10;;;;;;5006111;28;20651;-72
2023/10/15 07:59:47;;;;;;;9.97;3.27;;;10.20;79.90;;;;;;5009533;28;20573;-71
2023/10/15 08:02:12;;;;;;;9.23;3.70;;;10.20;78.90;;;;;;5010268;28;20220;-71
2023/10/15 08:04:38;;;;;;;7.77;3.10;;;10.40;77.40;;;;;;5010328;28;20190;-72
2023/10/15 08:07:03;;;;;;;5.33;2.37;;;10.50;76.20;;;;;;5006207;28;20308;-72
2023/10/15 08:09:29;;;;;;;4.50;2.07;;;10.60;74.50;;;;;;5010742;28;20189;-72
2023/10/15 08:11:56;;;;;;;2.20;1.50;;;10.70;74.00;;;;;;5013535;28;20186;-71
2023/10/15 08:14:21;;;;;;;5.17;2.30;;;10.70;73.30;;;;;;5015951;28;20421;-72
2023/10/15 08:16:47;;;;;;;5.97;2.13;;;10.70;72.60;;;;;;5003888;28;20503;-71
2023/10/15 08:19:12;;;;;;;5.10;2.27;;;10.80;72.70;;;;;;5007635;28;20197;-70
2023/10/15 08:21:38;;;;;;;5.17;2.10;;;10.80;72.00;;;;;;5008388;28;20205;-71
2023/10/15 08:24:04;;;;;;;6.27;2.37;;;10.70;72.30;;;;;;5010039;28;20208;-71
2023/10/15 08:26:29;;;;;;;3.67;1.63;;;10.80;72.40;;;;;;5003100;28;20214;-71
2023/10/15 08:28:55;;;;;;;5.97;2.17;;;10.90;72.30;;;;;;5021421;28;20925;-71
2023/10/15 08:31:21;;;;;;;3.20;1.90;;;11.10;72.10;;;;;;5020249;28;20206;-72
2023/10/15 08:33:46;;;;;;;4.20;2.10;;;11.20;71.00;;;;;;5016003;28;20178;-71
2023/10/15 08:36:12;;;;;;;5.60;2.07;;;11.30;70.80;;;;;;5005757;28;20221;-73
2023/10/15 08:38:37;;;;;;;4.87;1.80;;;11.40;70.50;;;;;;5018127;28;20253;-72
2023/10/15 08:41:08;;;;;;;9.40;2.20;;;11.40;69.40;;;;;;5003481;28;20212;-72
2023/10/15 08:43:34;;;;;;;6.80;2.00;;;11.50;69.40;;;;;;5016156;28;20940;-72
2023/10/15 08:46:09;;;;;;;3.83;1.80;;;11.40;69.40;;;;;;5013555;28;20464;-71
2023/10/15 08:48:37;;;;;;;6.47;2.03;;;11.40;68.90;;;;;;5014471;28;20440;-71
2023/10/15 08:51:04;;;;;;;5.40;1.87;;;11.30;69.50;;;;;;5011551;28;20974;-72
2023/10/15 08:53:30;;;;;;;7.67;2.13;;;11.30;69.50;;;;;;5014313;28;20429;-70
2023/10/15 08:55:59;;;;;;;6.17;2.37;;;11.10;69.50;;;;;;5007389;28;20456;-71
2023/10/15 08:58:25;;;;;;;2.57;1.57;;;11.10;69.10;;;;;;5011941;28;20933;-71
2023/10/15 09:00:53;;;;;;;4.67;1.70;;;11.10;69.90;;;;;;5014558;28;20425;-71
2023/10/15 09:03:23;;;;;;;6.30;2.00;;;11.30;69.90;;;;;;5014039;28;20503;-70
2023/10/15 09:05:52;;;;;;;6.30;1.80;;;11.60;69.50;;;;;;5010891;28;20812;-71
2023/10/15 09:08:19;;;;;;;10.10;3.07;;;11.60;68.30;;;;;;5012677;28;20445;-73
2023/10/15 09:10:44;;;;;;;6.33;1.97;;;11.60;69.40;;;;;;5012278;28;20435;-71
2023/10/15 09:13:14;;;;;;;5.43;2.20;;;11.60;68.30;;;;;;5013292;28;20416;-72
2023/10/15 09:15:47;;;;;;;5.70;2.00;;;11.60;68.80;;;;;;5011767;28;20198;-70
2023/10/15 09:18:15;;;;;;;10.63;1.70;;;11.40;69.20;;;;;;5013127;28;20421;-71
2023/10/15 09:20:45;;;;;;;4.87;1.60;;;11.40;69.40;;;;;;5012201;28;20436;-71
2023/10/15 09:23:11;;;;;;;8.27;1.70;;;11.20;69.20;;;;;;5012049;28;20471;-70
2023/10/15 09:25:37;;;;;;;4.20;1.83;;;10.70;72.10;;;;;;5014614;28;20469;-70
2023/10/15 09:28:03;;;;;;;9.17;2.30;;;10.40;74.30;;;;;;5017295;28;20190;-70
2023/10/15 09:30:33;;;;;;;6.47;2.00;;;10.40;75.50;;;;;;5012085;28;20550;-71
2023/10/15 09:32:58;;;;;;;6.60;2.20;;;10.60;75.90;;;;;;5012388;28;20428;-71
2023/10/15 09:35:25;;;;;;;7.07;2.67;;;10.60;74.20;;;;;;5008001;28;20473;-70
2023/10/15 09:37:53;;;;;;;10.57;4.17;;;10.80;73.50;;;;;;5011729;28;20182;-71
2023/10/15 09:40:31;;;;;;;5.40;2.30;;;11.00;73.00;;;;;;5016354;28;20512;-70
2023/10/15 09:42:56;;;;;;;3.53;2.00;;;11.20;72.30;;;;;;5006069;28;20463;-72
2023/10/15 09:45:25;;;;;;;6.47;2.10;;;11.30;71.10;;;;;;5008495;28;20452;-72
2023/10/15 09:47:57;;;;;;;4.60;2.50;;;11.40;71.00;;;;;;5012585;28;20280;-71
2023/10/15 09:50:27;;;;;;;3.20;1.80;;;11.50;71.40;;;;;;5012269;28;20449;-71
2023/10/15 09:52:57;;;;;;;5.07;2.60;;;11.50;70.80;;;;;;5010536;28;20505;-71
2023/10/15 09:55:27;;;;;;;5.20;2.53;;;11.50;71.10;;;;;;5004606;28;22323;-71
2023/10/15 09:57:57;;;;;;;5.23;2.70;;;11.40;71.10;;;;;;5011211;28;20410;-70
2023/10/15 10:00:46;;;;;;;6.00;2.13;;;11.40;71.10;;;;;;5010204;28;20500;-70
2023/10/15 10:03:37;;;;;;;6.23;2.47;;;11.60;70.10;;;;;;5010280;28;20472;-70
2023/10/15 10:06:27;;;;;;;6.20;2.00;;;11.70;69.90;;;;;;5007881;28;20460;-70
2023/10/15 10:09:16;;;;;;;6.20;2.30;;;11.90;69.50;;;;;;4978060;28;20487;-71
2023/10/15 10:11:54;;;;;;;5.07;2.00;;;11.60;68.90;;;;;;5007969;28;20458;-72
2023/10/15 10:14:46;;;;;;;2.50;1.50;;;11.80;68.20;;;;;;5017320;28;20975;-71
2023/10/15 10:17:13;;;;;;;6.47;1.90;;;11.80;66.60;;;;;;5008677;28;20456;-72
2023/10/15 10:19:40;;;;;;;3.20;1.60;;;12.00;65.80;;;;;;5011499;28;20413;-72
2023/10/15 10:22:19;;;;;;;3.77;1.83;;;12.00;66.10;;;;;;5012801;28;20544;-72
2023/10/15 10:24:45;;;;;;;9.30;1.60;;;12.10;66.10;;;;;;5012731;28;20811;-72
2023/10/15 10:27:15;;;;;;;2.60;1.33;;;12.20;66.00;;;;;;5010591;28;20464;-73
2023/10/15 10:29:51;;;;;;;3.20;1.70;;;12.20;66.00;;;;;;5013204;28;20264;-72
2023/10/15 10:32:19;;;;;;;5.43;1.83;;;12.10;66.00;;;;;;5005038;28;20462;-72
2023/10/15 10:34:45;;;;;;;3.40;1.60;;;11.70;67.00;;;;;;5012439;28;20424;-73
2023/10/15 10:37:21;;;;;;;7.83;2.07;;;11.80;67.70;;;;;;5011878;28;20456;-72
2023/10/15 10:39:49;;;;;;;4.73;1.73;;;12.20;67.20;;;;;;5014051;28;20475;-71
2023/10/15 10:42:26;;;;;;;3.80;1.67;;;12.70;65.80;;;;;;5011932;28;20465;-72
2023/10/15 10:44:56;;;;;;;6.03;1.90;;;13.20;65.60;;;;;;5011029;28;20555;-72
2023/10/15 10:47:24;;;;;;;4.03;1.57;;;13.80;64.50;;;;;;5007159;28;20794;-72
2023/10/15 10:50:00;;;;;;;4.27;1.90;;;14.00;62.20;;;;;;5015688;28;20854;-72
2023/10/15 10:52:36;;;;;;;7.50;1.60;;;14.10;61.60;;;;;;5011668;28;20428;-70
2023/10/15 10:55:30;;;;;;;2.97;1.50;;;14.40;60.60;;;;;;5009523;28;20428;-71
2023/10/15 10:57:56;;;;;;;3.90;1.50;;;14.60;58.10;;;;;;4998814;28;20481;-71
2023/10/15 11:00:22;;;;;;;7.93;2.23;;;14.70;58.90;;;;;;5007112;28;20438;-72
2023/10/15 11:02:48;;;;;;;7.40;1.73;;;13.70;60.70;;;;;;5010006;28;20209;-70
2023/10/15 11:05:16;;;;;;;2.77;1.70;;;13.50;62.80;;;;;;5008877;28;20709;-76
2023/10/15 11:07:42;;;;;;;2.90;1.40;;;13.00;62.80;;;;;;5017197;28;20456;-71
2023/10/15 11:10:09;;;;;;;6.00;1.63;;;12.70;63.70;;;;;;5010648;28;20440;-71
2023/10/15 11:12:34;;;;;;;5.83;1.40;;;12.60;61.30;;;;;;5008396;28;20927;-71
2023/10/15 11:15:00;;;;;;;3.30;1.50;;;12.00;60.60;;;;;;5009651;28;20421;-71
2023/10/15 11:17:26;;;;;;;4.60;2.13;;;12.00;61.90;;;;;;5009054;28;20217;-71
2023/10/15 11:19:51;;;;;;;3.93;1.40;;;12.00;61.60;;;;;;5008392;28;20265;-71
2023/10/15 11:22:17;;;;;;;3.57;1.70;;;11.80;61.50;;;;;;5011151;28;20202;-71
2023/10/15 11:24:44;;;;;;;1.53;1.10;;;11.60;62.20;;;;;;5011677;28;20476;-70
2023/10/15 11:27:12;;;;;;;2.00;1.27;;;11.60;62.80;;;;;;5009662;28;20202;-71
2023/10/15 11:29:38;;;;;;;3.40;1.30;;;11.60;63.40;;;;;;5012620;28;20413;-71
2023/10/15 11:32:06;;;;;;;5.03;1.57;;;11.60;63.90;;;;;;5014624;28;21058;-72
2023/10/15 11:34:35;;;;;;;4.00;1.50;;;11.40;65.00;;;;;;5013173;28;20462;-71
2023/10/15 11:37:01;;;;;;;4.37;1.50;;;11.30;66.00;;;;;;5010099;28;20449;-72
2023/10/15 11:39:37;;;;;;;4.50;2.00;;;11.30;66.60;;;;;;5010882;28;20439;-71
2023/10/15 11:42:07;;;;;;;4.57;1.60;;;11.40;66.70;;;;;;5014529;28;20491;-72
2023/10/15 11:44:36;;;;;;;4.67;1.60;;;11.30;67.30;;;;;;5009275;28;20418;-70
2023/10/15 11:47:12;;;;;;;3.10;1.57;;;11.50;67.70;;;;;;5010519;28;20543;-71
2023/10/15 11:49:38;;;;;;;5.47;1.57;;;12.10;66.70;;;;;;5011197;28;20428;-71
2023/10/15 11:52:11;;;;;;;2.57;1.60;;;12.60;65.70;;;;;;5007760;28;20436;-72
2023/10/15 11:54:43;;;;;;;4.60;1.60;;;13.00;65.00;;;;;;5009975;28;21177;-71
2023/10/15 11:57:16;;;;;;;4.30;1.50;;;13.20;64.70;;;;;;5010034;28;20468;-71
2023/10/15 11:59:45;;;;;;;4.80;1.80;;;13.00;66.10;;;;;;5012191;28;20449;-72
2023/10/15 12:02:11;;;;;;;4.73;1.30;;;12.50;67.00;;;;;;5010608;28;20476;-70
2023/10/15 12:04:38;;;;;;;3.00;1.50;;;12.30;68.00;;;;;;5013612;28;20474;-72
2023/10/15 12:07:04;;;;;;;4.20;1.60;;;12.60;67.70;;;;;;5003620;28;20464;-71
2023/10/15 12:09:32;;;;;;;2.93;1.30;;;13.00;66.90;;;;;;5008021;28;20437;-73
2023/10/15 12:11:58;;;;;;;6.73;2.10;;;13.20;66.00;;;;;;5011418;28;20420;-72
2023/10/15 12:14:24;;;;;;;9.43;2.00;;;13.00;65.30;;;;;;5011713;28;20417;-70
2023/10/15 12:16:49;;;;;;;3.50;1.60;;;12.90;66.30;;;;;;5005348;28;20452;-71
2023/10/15 12:19:15;;;;;;;4.23;1.67;;;12.90;65.60;;;;;;5012444;28;20427;-72
2023/10/15 12:21:40;;;;;;;3.50;1.77;;;12.80;63.40;;;;;;5010132;28;20553;-71
2023/10/15 12:24:13;;;;;;;4.70;2.00;;;12.50;63.90;;;;;;5010454;28;20202;-71
2023/10/15 12:26:39;;;;;;;4.17;1.73;;;12.60;64.10;;;;;;5002134;28;20214;-71
2023/10/15 12:29:08;;;;;;;3.80;2.40;;;12.70;63.70;;;;;;5009245;28;20469;-70
2023/10/15 12:31:38;;;;;;;4.43;1.63;;;12.80;63.80;;;;;;5009256;28;20834;-72
2023/10/15 12:34:04;;;;;;;7.63;2.37;;;12.90;62.90;;;;;;5009724;28;20443;-71
2023/10/15 12:36:30;;;;;;;5.10;2.00;;;12.80;63.50;;;;;;5005660;28;20453;-70
2023/10/15 12:38:58;;;;;;;5.80;2.30;;;12.70;62.90;;;;;;5009376;28;20437;-71
2023/10/15 12:41:25;;;;;;;7.50;2.07;;;12.70;63.80;;;;;;5006958;28;20423;-72
2023/10/15 12:43:58;;;;;;;4.93;1.70;;;12.70;63.50;;;;;;5008412;28;20472;-72
2023/10/15 12:46:25;;;;;;;4.53;1.80;;;12.50;64.80;;;;;;5010964;28;20491;-71
2023/10/15 12:48:52;;;;;;;6.27;1.97;;;12.30;63.40;;;;;;5010424;28;20455;-74
2023/10/15 12:51:18;;;;;;;4.33;2.27;;;12.40;63.80;;;;;;5009561;28;20531;-71
2023/10/15 12:53:43;;;;;;;5.93;2.13;;;12.50;62.80;;;;;;5014575;28;20432;-70
2023/10/15 12:56:10;;;;;;;4.27;2.60;;;12.60;62.60;;;;;;5011140;28;20460;-72
2023/10/15 12:58:36;;;;;;;4.40;2.30;;;12.40;61.20;;;;;;5008267;28;20186;-71
2023/10/15 13:01:01;;;;;;;3.93;1.90;;;12.30;61.50;;;;;;5007505;28;20937;-72
2023/10/15 13:03:28;;;;;;;2.57;1.57;;;12.50;61.00;;;;;;5009627;28;20202;-72
2023/10/15 13:05:54;;;;;;;3.53;1.60;;;12.80;60.00;;;;;;5005505;28;20900;-71
2023/10/15 13:08:19;;;;;;;3.33;1.87;;;13.30;57.80;;;;;;5009071;28;20511;-70
2023/10/15 13:10:45;;;;;;;2.67;1.70;;;13.60;57.00;;;;;;5008662;28;20181;-71